sensor_id;sensor_type;location;lat;lon;timestamp;P1;durP1;ratioP1;P2;durP2;ratioP2
75236;SDS011;63826;48.100;-1.670;2023-03-09T00:00:30;8.00;;;1.40;;
75236;SDS011;63826;48.100;-1.670;2023-03-09T00:02:56;7.35;;;1.33;;
75236;SDS011;63826;48.100;-1.670;2023-03-09T00:05:22;10.02;;;1.60;;
75236;SDS011;63826;48.100;-1.670;2023-03-09T00:07:48;7.97;;;1.42;;
75236;SDS011;63826;48.100;-1.670;2023-03-09T00:10:14;5.73;;;0.83;;
75236;SDS011;63826;48.100;-1.670;2023-03-09T00:12:40;8.80;;;1.23;;
75236;SDS011;63826;48.100;-1.670;2023-03-09T00:15:07;7.53;;;1.15;;
75236;SDS011;63826;48.100;-1.670;2023-03-09T00:17:34;8.05;;;1.20;;
75236;SDS011;63826;48.100;-1.670;2023-03-09T00:20:01;8.25;;;1.30;;
75236;SDS011;63826;48.100;-1.670;2023-03-09T00:22:48;9.10;;;1.20;;
75236;SDS011;63826;48.100;-1.670;2023-03-09T00:25:14;8.15;;;1.50;;
75236;SDS011;63826;48.100;-1.670;2023-03-09T00:27:41;7.28;;;1.10;;
75236;SDS011;63826;48.100;-1.670;2023-03-09T00:30:08;8.15;;;1.35;;
75236;SDS011;63826;48.100;-1.670;2023-03-09T00:32:34;9.07;;;1.30;;
75236;SDS011;63826;48.100;-1.670;2023-03-09T00:35:00;8.40;;;1.40;;
75236;SDS011;63826;48.100;-1.670;2023-03-09T00:37:26;8.75;;;1.40;;
75236;SDS011;63826;48.100;-1.670;2023-03-09T00:39:52;8.27;;;1.25;;
75236;SDS011;63826;48.100;-1.670;2023-03-09T00:42:18;9.80;;;1.05;;
75236;SDS011;63826;48.100;-1.670;2023-03-09T00:44:44;9.97;;;1.63;;
75236;SDS011;63826;48.100;-1.670;2023-03-09T00:47:11;8.20;;;1.50;;
75236;SDS011;63826;48.100;-1.670;2023-03-09T00:49:37;9.98;;;1.40;;
75236;SDS011;63826;48.100;-1.670;2023-03-09T00:52:04;10.25;;;1.80;;
75236;SDS011;63826;48.100;-1.670;2023-03-09T00:54:30;7.67;;;1.27;;
75236;SDS011;63826;48.100;-1.670;2023-03-09T00:56:56;10.07;;;1.23;;
75236;SDS011;63826;48.100;-1.670;2023-03-09T00:59:22;7.88;;;1.45;;
75236;SDS011;63826;48.100;-1.670;2023-03-09T01:01:48;10.27;;;1.40;;
75236;SDS011;63826;48.100;-1.670;2023-03-09T01:04:14;10.10;;;1.42;;
75236;SDS011;63826;48.100;-1.670;2023-03-09T01:06:40;9.57;;;1.60;;
75236;SDS011;63826;48.100;-1.670;2023-03-09T01:09:06;11.43;;;1.70;;
75236;SDS011;63826;48.100;-1.670;2023-03-09T01:11:32;9.57;;;1.40;;
75236;SDS011;63826;48.100;-1.670;2023-03-09T01:13:58;9.02;;;1.23;;
75236;SDS011;63826;48.100;-1.670;2023-03-09T01:16:25;7.45;;;1.50;;
75236;SDS011;63826;48.100;-1.670;2023-03-09T01:18:51;9.87;;;1.90;;
75236;SDS011;63826;48.100;-1.670;2023-03-09T01:21:17;9.63;;;1.98;;
75236;SDS011;63826;48.100;-1.670;2023-03-09T01:23:43;8.85;;;1.40;;
75236;SDS011;63826;48.100;-1.670;2023-03-09T01:26:09;9.95;;;1.95;;
75236;SDS011;63826;48.100;-1.670;2023-03-09T01:28:36;7.88;;;1.20;;
75236;SDS011;63826;48.100;-1.670;2023-03-09T01:31:09;8.60;;;1.20;;
75236;SDS011;63826;48.100;-1.670;2023-03-09T01:33:35;8.43;;;1.20;;
75236;SDS011;63826;48.100;-1.670;2023-03-09T01:36:05;11.88;;;1.60;;
75236;SDS011;63826;48.100;-1.670;2023-03-09T01:38:31;8.45;;;1.17;;
75236;SDS011;63826;48.100;-1.670;2023-03-09T01:40:57;9.20;;;1.27;;
75236;SDS011;63826;48.100;-1.670;2023-03-09T01:48:15;9.63;;;1.40;;
75236;SDS011;63826;48.100;-1.670;2023-03-09T01:50:41;8.03;;;1.50;;
75236;SDS011;63826;48.100;-1.670;2023-03-09T01:53:10;7.78;;;1.25;;
75236;SDS011;63826;48.100;-1.670;2023-03-09T01:55:37;9.15;;;1.33;;
75236;SDS011;63826;48.100;-1.670;2023-03-09T01:58:09;9.57;;;1.25;;
75236;SDS011;63826;48.100;-1.670;2023-03-09T02:00:38;11.73;;;1.80;;
75236;SDS011;63826;48.100;-1.670;2023-03-09T02:03:10;9.77;;;1.30;;
75236;SDS011;63826;48.100;-1.670;2023-03-09T02:05:45;9.57;;;1.57;;
75236;SDS011;63826;48.100;-1.670;2023-03-09T02:08:13;12.40;;;2.08;;
75236;SDS011;63826;48.100;-1.670;2023-03-09T02:10:43;10.25;;;1.50;;
75236;SDS011;63826;48.100;-1.670;2023-03-09T02:13:12;10.98;;;1.85;;
75236;SDS011;63826;48.100;-1.670;2023-03-09T02:15:39;10.88;;;1.30;;
75236;SDS011;63826;48.100;-1.670;2023-03-09T02:18:06;11.17;;;1.50;;
75236;SDS011;63826;48.100;-1.670;2023-03-09T02:20:40;10.60;;;1.60;;
75236;SDS011;63826;48.100;-1.670;2023-03-09T02:23:13;11.07;;;1.75;;
75236;SDS011;63826;48.100;-1.670;2023-03-09T02:25:46;10.05;;;1.42;;
75236;SDS011;63826;48.100;-1.670;2023-03-09T02:28:14;9.65;;;1.25;;
75236;SDS011;63826;48.100;-1.670;2023-03-09T02:30:40;10.33;;;1.73;;
75236;SDS011;63826;48.100;-1.670;2023-03-09T02:33:12;10.18;;;1.60;;
75236;SDS011;63826;48.100;-1.670;2023-03-09T02:35:45;9.93;;;1.52;;
75236;SDS011;63826;48.100;-1.670;2023-03-09T02:38:12;9.18;;;1.67;;
75236;SDS011;63826;48.100;-1.670;2023-03-09T02:40:38;8.17;;;1.40;;
75236;SDS011;63826;48.100;-1.670;2023-03-09T02:43:05;12.90;;;1.80;;
75236;SDS011;63826;48.100;-1.670;2023-03-09T02:45:32;9.45;;;1.80;;
75236;SDS011;63826;48.100;-1.670;2023-03-09T02:47:58;10.07;;;1.60;;
75236;SDS011;63826;48.100;-1.670;2023-03-09T02:50:25;9.05;;;1.50;;
75236;SDS011;63826;48.100;-1.670;2023-03-09T02:52:51;11.47;;;1.80;;
75236;SDS011;63826;48.100;-1.670;2023-03-09T02:55:17;10.80;;;1.60;;
75236;SDS011;63826;48.100;-1.670;2023-03-09T02:57:43;9.00;;;1.38;;
75236;SDS011;63826;48.100;-1.670;2023-03-09T03:00:11;9.85;;;1.80;;
75236;SDS011;63826;48.100;-1.670;2023-03-09T03:02:38;8.70;;;1.60;;
75236;SDS011;63826;48.100;-1.670;2023-03-09T03:05:04;11.00;;;1.53;;
75236;SDS011;63826;48.100;-1.670;2023-03-09T03:07:31;10.70;;;1.55;;
75236;SDS011;63826;48.100;-1.670;2023-03-09T03:09:57;10.52;;;1.73;;
75236;SDS011;63826;48.100;-1.670;2023-03-09T03:12:23;12.85;;;2.00;;
75236;SDS011;63826;48.100;-1.670;2023-03-09T03:14:49;10.57;;;1.52;;
75236;SDS011;63826;48.100;-1.670;2023-03-09T03:17:15;9.93;;;1.77;;
75236;SDS011;63826;48.100;-1.670;2023-03-09T03:19:41;9.23;;;1.63;;
75236;SDS011;63826;48.100;-1.670;2023-03-09T03:22:07;10.13;;;1.83;;
75236;SDS011;63826;48.100;-1.670;2023-03-09T03:24:37;10.40;;;1.70;;
75236;SDS011;63826;48.100;-1.670;2023-03-09T03:27:03;11.30;;;2.00;;
75236;SDS011;63826;48.100;-1.670;2023-03-09T03:29:29;9.97;;;1.70;;
75236;SDS011;63826;48.100;-1.670;2023-03-09T03:31:55;13.90;;;2.03;;
75236;SDS011;63826;48.100;-1.670;2023-03-09T03:34:21;11.05;;;1.80;;
75236;SDS011;63826;48.100;-1.670;2023-03-09T03:36:47;13.00;;;1.85;;
75236;SDS011;63826;48.100;-1.670;2023-03-09T03:39:13;9.40;;;1.53;;
75236;SDS011;63826;48.100;-1.670;2023-03-09T03:41:39;10.93;;;1.53;;
75236;SDS011;63826;48.100;-1.670;2023-03-09T03:44:06;10.00;;;1.67;;
75236;SDS011;63826;48.100;-1.670;2023-03-09T03:46:32;11.48;;;1.80;;
75236;SDS011;63826;48.100;-1.670;2023-03-09T03:48:58;10.05;;;1.30;;
75236;SDS011;63826;48.100;-1.670;2023-03-09T03:51:24;11.88;;;2.15;;
75236;SDS011;63826;48.100;-1.670;2023-03-09T03:53:50;13.07;;;1.67;;
75236;SDS011;63826;48.100;-1.670;2023-03-09T03:56:16;9.70;;;1.63;;
75236;SDS011;63826;48.100;-1.670;2023-03-09T03:58:42;9.55;;;1.80;;
75236;SDS011;63826;48.100;-1.670;2023-03-09T04:01:08;12.70;;;2.03;;
75236;SDS011;63826;48.100;-1.670;2023-03-09T04:03:34;9.83;;;1.53;;
75236;SDS011;63826;48.100;-1.670;2023-03-09T04:06:00;10.37;;;1.60;;
75236;SDS011;63826;48.100;-1.670;2023-03-09T04:08:27;11.00;;;1.92;;
75236;SDS011;63826;48.100;-1.670;2023-03-09T04:10:53;9.10;;;1.83;;
75236;SDS011;63826;48.100;-1.670;2023-03-09T04:13:20;12.10;;;2.10;;
75236;SDS011;63826;48.100;-1.670;2023-03-09T04:15:46;9.65;;;1.92;;
75236;SDS011;63826;48.100;-1.670;2023-03-09T04:18:12;11.80;;;1.70;;
75236;SDS011;63826;48.100;-1.670;2023-03-09T04:20:38;12.75;;;2.05;;
75236;SDS011;63826;48.100;-1.670;2023-03-09T04:23:04;10.65;;;1.73;;
75236;SDS011;63826;48.100;-1.670;2023-03-09T04:25:31;14.98;;;2.10;;
75236;SDS011;63826;48.100;-1.670;2023-03-09T04:27:57;13.15;;;1.98;;
75236;SDS011;63826;48.100;-1.670;2023-03-09T04:30:23;11.40;;;1.77;;
75236;SDS011;63826;48.100;-1.670;2023-03-09T04:32:49;12.50;;;2.05;;
75236;SDS011;63826;48.100;-1.670;2023-03-09T04:35:16;11.55;;;1.80;;
75236;SDS011;63826;48.100;-1.670;2023-03-09T04:37:42;12.55;;;1.88;;
75236;SDS011;63826;48.100;-1.670;2023-03-09T04:40:11;11.93;;;1.98;;
75236;SDS011;63826;48.100;-1.670;2023-03-09T04:42:38;9.90;;;1.87;;
75236;SDS011;63826;48.100;-1.670;2023-03-09T04:45:04;14.00;;;2.20;;
75236;SDS011;63826;48.100;-1.670;2023-03-09T04:47:30;10.93;;;1.83;;
75236;SDS011;63826;48.100;-1.670;2023-03-09T04:49:56;14.65;;;2.47;;
75236;SDS011;63826;48.100;-1.670;2023-03-09T04:52:22;13.37;;;2.00;;
75236;SDS011;63826;48.100;-1.670;2023-03-09T04:54:48;10.73;;;1.83;;
75236;SDS011;63826;48.100;-1.670;2023-03-09T04:57:14;13.15;;;2.08;;
75236;SDS011;63826;48.100;-1.670;2023-03-09T04:59:40;12.30;;;1.98;;
75236;SDS011;63826;48.100;-1.670;2023-03-09T05:02:06;11.55;;;2.17;;
75236;SDS011;63826;48.100;-1.670;2023-03-09T05:04:32;11.40;;;2.10;;
75236;SDS011;63826;48.100;-1.670;2023-03-09T05:07:00;16.33;;;2.30;;
75236;SDS011;63826;48.100;-1.670;2023-03-09T05:09:26;12.52;;;2.00;;
75236;SDS011;63826;48.100;-1.670;2023-03-09T05:11:52;12.45;;;2.28;;
75236;SDS011;63826;48.100;-1.670;2023-03-09T05:14:18;11.57;;;2.30;;
75236;SDS011;63826;48.100;-1.670;2023-03-09T05:16:45;11.35;;;1.75;;
75236;SDS011;63826;48.100;-1.670;2023-03-09T05:19:11;10.45;;;2.22;;
75236;SDS011;63826;48.100;-1.670;2023-03-09T05:21:37;13.80;;;2.08;;
75236;SDS011;63826;48.100;-1.670;2023-03-09T05:24:03;15.80;;;2.45;;
75236;SDS011;63826;48.100;-1.670;2023-03-09T05:26:30;14.10;;;2.40;;
75236;SDS011;63826;48.100;-1.670;2023-03-09T05:28:56;11.80;;;1.98;;
75236;SDS011;63826;48.100;-1.670;2023-03-09T05:31:21;16.80;;;2.85;;
75236;SDS011;63826;48.100;-1.670;2023-03-09T05:33:47;15.48;;;2.40;;
75236;SDS011;63826;48.100;-1.670;2023-03-09T05:36:18;13.27;;;2.33;;
75236;SDS011;63826;48.100;-1.670;2023-03-09T05:38:44;12.13;;;2.60;;
75236;SDS011;63826;48.100;-1.670;2023-03-09T05:41:10;11.50;;;2.20;;
75236;SDS011;63826;48.100;-1.670;2023-03-09T05:43:36;14.05;;;2.65;;
75236;SDS011;63826;48.100;-1.670;2023-03-09T05:46:06;13.65;;;2.30;;
75236;SDS011;63826;48.100;-1.670;2023-03-09T05:48:32;15.15;;;2.38;;
75236;SDS011;63826;48.100;-1.670;2023-03-09T05:51:01;13.43;;;2.40;;
75236;SDS011;63826;48.100;-1.670;2023-03-09T05:53:27;15.93;;;2.80;;
75236;SDS011;63826;48.100;-1.670;2023-03-09T05:55:55;14.35;;;2.28;;
75236;SDS011;63826;48.100;-1.670;2023-03-09T05:58:21;14.18;;;2.50;;
75236;SDS011;63826;48.100;-1.670;2023-03-09T06:00:47;16.50;;;2.30;;
75236;SDS011;63826;48.100;-1.670;2023-03-09T06:03:13;16.23;;;2.60;;
75236;SDS011;63826;48.100;-1.670;2023-03-09T06:05:39;13.93;;;2.40;;
75236;SDS011;63826;48.100;-1.670;2023-03-09T06:08:05;13.90;;;2.25;;
75236;SDS011;63826;48.100;-1.670;2023-03-09T06:10:31;14.50;;;2.30;;
75236;SDS011;63826;48.100;-1.670;2023-03-09T06:12:57;15.97;;;2.90;;
75236;SDS011;63826;48.100;-1.670;2023-03-09T06:15:23;19.48;;;3.08;;
75236;SDS011;63826;48.100;-1.670;2023-03-09T06:17:49;10.13;;;2.25;;
75236;SDS011;63826;48.100;-1.670;2023-03-09T06:20:15;14.57;;;2.75;;
75236;SDS011;63826;48.100;-1.670;2023-03-09T06:22:41;15.25;;;2.53;;
75236;SDS011;63826;48.100;-1.670;2023-03-09T06:25:09;15.32;;;2.70;;
75236;SDS011;63826;48.100;-1.670;2023-03-09T06:27:35;17.52;;;2.92;;
75236;SDS011;63826;48.100;-1.670;2023-03-09T06:30:02;17.00;;;2.72;;
75236;SDS011;63826;48.100;-1.670;2023-03-09T06:32:30;15.32;;;3.10;;
75236;SDS011;63826;48.100;-1.670;2023-03-09T06:34:57;14.35;;;2.50;;
75236;SDS011;63826;48.100;-1.670;2023-03-09T06:37:22;17.73;;;3.15;;
75236;SDS011;63826;48.100;-1.670;2023-03-09T06:39:49;14.77;;;2.55;;
75236;SDS011;63826;48.100;-1.670;2023-03-09T06:42:14;15.82;;;3.33;;
75236;SDS011;63826;48.100;-1.670;2023-03-09T06:44:40;14.10;;;2.53;;
75236;SDS011;63826;48.100;-1.670;2023-03-09T06:47:07;13.82;;;2.70;;
75236;SDS011;63826;48.100;-1.670;2023-03-09T06:49:33;14.27;;;2.60;;
75236;SDS011;63826;48.100;-1.670;2023-03-09T06:51:59;13.48;;;2.40;;
75236;SDS011;63826;48.100;-1.670;2023-03-09T06:54:25;12.80;;;2.60;;
75236;SDS011;63826;48.100;-1.670;2023-03-09T06:56:51;12.93;;;2.40;;
75236;SDS011;63826;48.100;-1.670;2023-03-09T06:59:18;17.05;;;3.08;;
75236;SDS011;63826;48.100;-1.670;2023-03-09T07:01:44;15.95;;;3.28;;
75236;SDS011;63826;48.100;-1.670;2023-03-09T07:04:10;17.17;;;3.08;;
75236;SDS011;63826;48.100;-1.670;2023-03-09T07:06:36;13.38;;;2.42;;
75236;SDS011;63826;48.100;-1.670;2023-03-09T07:09:03;14.18;;;3.00;;
75236;SDS011;63826;48.100;-1.670;2023-03-09T07:11:29;15.43;;;3.13;;
75236;SDS011;63826;48.100;-1.670;2023-03-09T07:13:55;14.30;;;2.25;;
75236;SDS011;63826;48.100;-1.670;2023-03-09T07:16:21;14.93;;;2.42;;
75236;SDS011;63826;48.100;-1.670;2023-03-09T07:18:47;15.88;;;2.90;;
75236;SDS011;63826;48.100;-1.670;2023-03-09T07:21:13;13.90;;;2.60;;
75236;SDS011;63826;48.100;-1.670;2023-03-09T07:23:39;14.52;;;2.72;;
75236;SDS011;63826;48.100;-1.670;2023-03-09T07:26:05;11.80;;;2.80;;
75236;SDS011;63826;48.100;-1.670;2023-03-09T07:28:32;14.38;;;2.67;;
75236;SDS011;63826;48.100;-1.670;2023-03-09T07:30:58;16.13;;;2.30;;
75236;SDS011;63826;48.100;-1.670;2023-03-09T07:33:24;20.50;;;3.47;;
75236;SDS011;63826;48.100;-1.670;2023-03-09T07:35:51;13.35;;;2.30;;
75236;SDS011;63826;48.100;-1.670;2023-03-09T07:38:17;14.38;;;2.75;;
75236;SDS011;63826;48.100;-1.670;2023-03-09T07:40:43;15.48;;;2.67;;
75236;SDS011;63826;48.100;-1.670;2023-03-09T07:43:10;14.13;;;2.53;;
75236;SDS011;63826;48.100;-1.670;2023-03-09T07:45:37;12.98;;;1.95;;
75236;SDS011;63826;48.100;-1.670;2023-03-09T07:48:03;17.10;;;2.78;;
75236;SDS011;63826;48.100;-1.670;2023-03-09T07:50:29;13.00;;;2.40;;
75236;SDS011;63826;48.100;-1.670;2023-03-09T07:52:55;13.30;;;3.15;;
75236;SDS011;63826;48.100;-1.670;2023-03-09T07:55:22;15.57;;;2.85;;
75236;SDS011;63826;48.100;-1.670;2023-03-09T07:57:48;14.13;;;2.80;;
75236;SDS011;63826;48.100;-1.670;2023-03-09T08:00:15;15.73;;;2.90;;
75236;SDS011;63826;48.100;-1.670;2023-03-09T08:02:45;18.77;;;3.30;;
75236;SDS011;63826;48.100;-1.670;2023-03-09T08:05:12;17.95;;;3.50;;
75236;SDS011;63826;48.100;-1.670;2023-03-09T08:07:38;13.60;;;2.70;;
75236;SDS011;63826;48.100;-1.670;2023-03-09T08:10:07;18.15;;;2.92;;
75236;SDS011;63826;48.100;-1.670;2023-03-09T08:12:34;14.93;;;3.05;;
75236;SDS011;63826;48.100;-1.670;2023-03-09T08:15:00;108.88;;;44.17;;
75236;SDS011;63826;48.100;-1.670;2023-03-09T08:17:28;107.85;;;42.80;;
75236;SDS011;63826;48.100;-1.670;2023-03-09T08:19:56;61.60;;;21.27;;
75236;SDS011;63826;48.100;-1.670;2023-03-09T08:22:23;26.52;;;5.45;;
75236;SDS011;63826;48.100;-1.670;2023-03-09T08:24:49;25.27;;;4.53;;
75236;SDS011;63826;48.100;-1.670;2023-03-09T08:27:15;15.63;;;2.70;;
75236;SDS011;63826;48.100;-1.670;2023-03-09T08:29:41;17.87;;;2.93;;
75236;SDS011;63826;48.100;-1.670;2023-03-09T08:32:08;14.65;;;3.00;;
75236;SDS011;63826;48.100;-1.670;2023-03-09T08:34:34;14.65;;;2.90;;
75236;SDS011;63826;48.100;-1.670;2023-03-09T08:37:00;15.20;;;2.58;;
75236;SDS011;63826;48.100;-1.670;2023-03-09T08:39:26;16.17;;;2.78;;
75236;SDS011;63826;48.100;-1.670;2023-03-09T08:41:52;14.60;;;2.60;;
75236;SDS011;63826;48.100;-1.670;2023-03-09T08:44:18;13.63;;;2.65;;
75236;SDS011;63826;48.100;-1.670;2023-03-09T08:46:44;15.65;;;2.72;;
75236;SDS011;63826;48.100;-1.670;2023-03-09T08:49:10;16.40;;;3.42;;
75236;SDS011;63826;48.100;-1.670;2023-03-09T08:51:36;11.90;;;2.50;;
75236;SDS011;63826;48.100;-1.670;2023-03-09T08:54:02;12.67;;;2.50;;
75236;SDS011;63826;48.100;-1.670;2023-03-09T08:56:28;13.85;;;2.47;;
75236;SDS011;63826;48.100;-1.670;2023-03-09T08:58:54;16.70;;;2.75;;
75236;SDS011;63826;48.100;-1.670;2023-03-09T09:01:22;14.70;;;2.83;;
75236;SDS011;63826;48.100;-1.670;2023-03-09T09:03:48;16.70;;;2.67;;
75236;SDS011;63826;48.100;-1.670;2023-03-09T09:06:14;14.38;;;2.20;;
75236;SDS011;63826;48.100;-1.670;2023-03-09T09:08:41;11.38;;;2.25;;
75236;SDS011;63826;48.100;-1.670;2023-03-09T09:11:08;13.60;;;2.35;;
75236;SDS011;63826;48.100;-1.670;2023-03-09T09:13:35;15.32;;;2.83;;
75236;SDS011;63826;48.100;-1.670;2023-03-09T09:16:02;13.67;;;2.70;;
75236;SDS011;63826;48.100;-1.670;2023-03-09T09:18:30;17.73;;;3.40;;
75236;SDS011;63826;48.100;-1.670;2023-03-09T09:20:56;17.17;;;2.90;;
75236;SDS011;63826;48.100;-1.670;2023-03-09T09:23:23;16.38;;;3.42;;
75236;SDS011;63826;48.100;-1.670;2023-03-09T09:25:55;16.17;;;2.70;;
75236;SDS011;63826;48.100;-1.670;2023-03-09T09:28:22;14.17;;;2.37;;
75236;SDS011;63826;48.100;-1.670;2023-03-09T09:30:54;19.05;;;2.80;;
75236;SDS011;63826;48.100;-1.670;2023-03-09T09:33:21;14.80;;;2.75;;
75236;SDS011;63826;48.100;-1.670;2023-03-09T09:35:55;11.93;;;2.38;;
75236;SDS011;63826;48.100;-1.670;2023-03-09T09:38:21;17.60;;;3.28;;
75236;SDS011;63826;48.100;-1.670;2023-03-09T09:40:47;18.33;;;3.07;;
75236;SDS011;63826;48.100;-1.670;2023-03-09T09:43:13;12.73;;;2.35;;
75236;SDS011;63826;48.100;-1.670;2023-03-09T09:45:39;14.48;;;2.50;;
75236;SDS011;63826;48.100;-1.670;2023-03-09T09:48:12;14.13;;;2.40;;
75236;SDS011;63826;48.100;-1.670;2023-03-09T09:53:16;14.87;;;2.33;;
75236;SDS011;63826;48.100;-1.670;2023-03-09T09:55:45;11.45;;;2.00;;
75236;SDS011;63826;48.100;-1.670;2023-03-09T10:00:46;13.50;;;2.50;;
75236;SDS011;63826;48.100;-1.670;2023-03-09T10:06:10;15.03;;;2.87;;
75236;SDS011;63826;48.100;-1.670;2023-03-09T10:08:40;14.52;;;2.53;;
75236;SDS011;63826;48.100;-1.670;2023-03-09T10:11:21;14.35;;;2.30;;
75236;SDS011;63826;48.100;-1.670;2023-03-09T10:13:53;11.38;;;2.50;;
75236;SDS011;63826;48.100;-1.670;2023-03-09T10:16:22;12.68;;;2.70;;
75236;SDS011;63826;48.100;-1.670;2023-03-09T10:18:52;15.27;;;2.77;;
75236;SDS011;63826;48.100;-1.670;2023-03-09T10:21:20;14.68;;;2.60;;
75236;SDS011;63826;48.100;-1.670;2023-03-09T10:23:49;15.38;;;2.65;;
75236;SDS011;63826;48.100;-1.670;2023-03-09T10:26:36;16.38;;;2.83;;
75236;SDS011;63826;48.100;-1.670;2023-03-09T10:29:08;19.45;;;2.70;;
75236;SDS011;63826;48.100;-1.670;2023-03-09T10:36:29;13.85;;;2.45;;
75236;SDS011;63826;48.100;-1.670;2023-03-09T10:38:56;15.57;;;2.65;;
75236;SDS011;63826;48.100;-1.670;2023-03-09T10:41:22;12.97;;;2.40;;
75236;SDS011;63826;48.100;-1.670;2023-03-09T10:43:48;11.82;;;2.10;;
75236;SDS011;63826;48.100;-1.670;2023-03-09T10:48:41;11.88;;;2.20;;
75236;SDS011;63826;48.100;-1.670;2023-03-09T10:51:21;11.17;;;2.10;;
75236;SDS011;63826;48.100;-1.670;2023-03-09T10:53:47;13.82;;;2.05;;
75236;SDS011;63826;48.100;-1.670;2023-03-09T10:56:20;12.02;;;2.45;;
75236;SDS011;63826;48.100;-1.670;2023-03-09T11:01:32;11.43;;;2.33;;
75236;SDS011;63826;48.100;-1.670;2023-03-09T11:03:58;10.27;;;1.83;;
75236;SDS011;63826;48.100;-1.670;2023-03-09T11:06:28;9.57;;;1.88;;
75236;SDS011;63826;48.100;-1.670;2023-03-09T11:09:05;10.55;;;1.88;;
75236;SDS011;63826;48.100;-1.670;2023-03-09T11:11:32;14.77;;;2.08;;
75236;SDS011;63826;48.100;-1.670;2023-03-09T11:13:58;8.85;;;1.63;;
75236;SDS011;63826;48.100;-1.670;2023-03-09T11:16:31;9.07;;;1.40;;
75236;SDS011;63826;48.100;-1.670;2023-03-09T11:19:10;9.60;;;1.40;;
75236;SDS011;63826;48.100;-1.670;2023-03-09T11:21:37;10.25;;;1.73;;
75236;SDS011;63826;48.100;-1.670;2023-03-09T11:24:06;10.65;;;1.58;;
75236;SDS011;63826;48.100;-1.670;2023-03-09T11:26:38;9.18;;;1.60;;
75236;SDS011;63826;48.100;-1.670;2023-03-09T11:31:50;9.93;;;1.85;;
75236;SDS011;63826;48.100;-1.670;2023-03-09T11:36:49;9.98;;;1.92;;
75236;SDS011;63826;48.100;-1.670;2023-03-09T11:39:33;10.70;;;1.85;;
75236;SDS011;63826;48.100;-1.670;2023-03-09T11:42:00;10.10;;;1.93;;
75236;SDS011;63826;48.100;-1.670;2023-03-09T11:44:32;12.50;;;1.98;;
75236;SDS011;63826;48.100;-1.670;2023-03-09T11:47:02;10.75;;;1.85;;
75236;SDS011;63826;48.100;-1.670;2023-03-09T11:49:29;12.52;;;2.20;;
75236;SDS011;63826;48.100;-1.670;2023-03-09T11:51:57;11.85;;;2.20;;
75236;SDS011;63826;48.100;-1.670;2023-03-09T11:54:26;10.80;;;2.20;;
75236;SDS011;63826;48.100;-1.670;2023-03-09T11:56:53;14.48;;;2.33;;
75236;SDS011;63826;48.100;-1.670;2023-03-09T11:59:35;13.23;;;2.40;;
75236;SDS011;63826;48.100;-1.670;2023-03-09T12:02:02;12.65;;;3.13;;
75236;SDS011;63826;48.100;-1.670;2023-03-09T12:04:29;22.77;;;11.48;;
75236;SDS011;63826;48.100;-1.670;2023-03-09T12:09:29;193.20;;;176.20;;
75236;SDS011;63826;48.100;-1.670;2023-03-09T12:14:36;323.92;;;296.45;;
75236;SDS011;63826;48.100;-1.670;2023-03-09T12:17:03;343.83;;;314.00;;
75236;SDS011;63826;48.100;-1.670;2023-03-09T12:19:31;333.03;;;304.50;;
75236;SDS011;63826;48.100;-1.670;2023-03-09T12:22:14;317.58;;;290.48;;
75236;SDS011;63826;48.100;-1.670;2023-03-09T12:24:44;302.95;;;276.83;;
75236;SDS011;63826;48.100;-1.670;2023-03-09T12:27:13;271.38;;;247.75;;
75236;SDS011;63826;48.100;-1.670;2023-03-09T12:29:41;245.32;;;224.55;;
75236;SDS011;63826;48.100;-1.670;2023-03-09T12:34:54;225.70;;;205.70;;
75236;SDS011;63826;48.100;-1.670;2023-03-09T12:42:50;166.88;;;152.15;;
75236;SDS011;63826;48.100;-1.670;2023-03-09T12:47:56;148.63;;;135.10;;
75236;SDS011;63826;48.100;-1.670;2023-03-09T12:50:24;141.85;;;129.27;;
75236;SDS011;63826;48.100;-1.670;2023-03-09T13:00:55;88.75;;;79.47;;
75236;SDS011;63826;48.100;-1.670;2023-03-09T13:03:25;73.60;;;65.97;;
75236;SDS011;63826;48.100;-1.670;2023-03-09T13:05:56;63.78;;;56.97;;
75236;SDS011;63826;48.100;-1.670;2023-03-09T13:08:29;59.85;;;53.42;;
75236;SDS011;63826;48.100;-1.670;2023-03-09T13:13:42;48.53;;;43.55;;
75236;SDS011;63826;48.100;-1.670;2023-03-09T13:24:44;34.23;;;28.80;;
75236;SDS011;63826;48.100;-1.670;2023-03-09T13:27:05;32.17;;;26.80;;
75236;SDS011;63826;48.100;-1.670;2023-03-09T13:29:32;30.48;;;23.33;;
75236;SDS011;63826;48.100;-1.670;2023-03-09T13:31:59;25.13;;;20.63;;
75236;SDS011;63826;48.100;-1.670;2023-03-09T13:34:26;25.60;;;19.13;;
75236;SDS011;63826;48.100;-1.670;2023-03-09T13:36:54;25.37;;;17.27;;
75236;SDS011;63826;48.100;-1.670;2023-03-09T13:39:21;22.30;;;14.77;;
75236;SDS011;63826;48.100;-1.670;2023-03-09T13:41:49;20.90;;;14.23;;
75236;SDS011;63826;48.100;-1.670;2023-03-09T13:44:16;20.92;;;12.65;;
75236;SDS011;63826;48.100;-1.670;2023-03-09T13:46:46;17.63;;;10.50;;
75236;SDS011;63826;48.100;-1.670;2023-03-09T13:52:14;19.02;;;8.70;;
75236;SDS011;63826;48.100;-1.670;2023-03-09T13:57:20;16.77;;;7.25;;
75236;SDS011;63826;48.100;-1.670;2023-03-09T14:02:19;14.23;;;5.67;;
75236;SDS011;63826;48.100;-1.670;2023-03-09T14:05:30;14.13;;;4.90;;
75236;SDS011;63826;48.100;-1.670;2023-03-09T14:07:46;13.65;;;4.65;;
75236;SDS011;63826;48.100;-1.670;2023-03-09T14:10:16;12.25;;;4.15;;
75236;SDS011;63826;48.100;-1.670;2023-03-09T14:12:43;11.05;;;3.58;;
75236;SDS011;63826;48.100;-1.670;2023-03-09T14:15:16;10.57;;;3.10;;
75236;SDS011;63826;48.100;-1.670;2023-03-09T14:17:43;10.98;;;3.20;;
75236;SDS011;63826;48.100;-1.670;2023-03-09T14:20:17;11.23;;;2.83;;
75236;SDS011;63826;48.100;-1.670;2023-03-09T14:22:45;11.80;;;2.92;;
75236;SDS011;63826;48.100;-1.670;2023-03-09T14:27:46;8.47;;;1.97;;
75236;SDS011;63826;48.100;-1.670;2023-03-09T14:33:04;14.35;;;2.88;;
75236;SDS011;63826;48.100;-1.670;2023-03-09T14:35:34;9.60;;;1.90;;
75236;SDS011;63826;48.100;-1.670;2023-03-09T14:38:01;12.95;;;2.25;;
75236;SDS011;63826;48.100;-1.670;2023-03-09T14:40:29;9.70;;;2.10;;
75236;SDS011;63826;48.100;-1.670;2023-03-09T14:46:23;10.77;;;1.52;;
75236;SDS011;63826;48.100;-1.670;2023-03-09T14:48:56;10.20;;;1.65;;
75236;SDS011;63826;48.100;-1.670;2023-03-09T14:51:24;11.93;;;1.80;;
75236;SDS011;63826;48.100;-1.670;2023-03-09T14:54:00;9.97;;;1.50;;
75236;SDS011;63826;48.100;-1.670;2023-03-09T14:56:28;4.93;;;1.13;;
75236;SDS011;63826;48.100;-1.670;2023-03-09T14:58:54;7.13;;;1.40;;
75236;SDS011;63826;48.100;-1.670;2023-03-09T15:01:23;7.40;;;1.45;;
75236;SDS011;63826;48.100;-1.670;2023-03-09T15:03:49;5.67;;;0.80;;
75236;SDS011;63826;48.100;-1.670;2023-03-09T15:06:15;7.33;;;1.40;;
75236;SDS011;63826;48.100;-1.670;2023-03-09T15:08:41;12.95;;;1.73;;
75236;SDS011;63826;48.100;-1.670;2023-03-09T15:11:07;11.98;;;1.35;;
75236;SDS011;63826;48.100;-1.670;2023-03-09T15:13:34;13.20;;;1.75;;
75236;SDS011;63826;48.100;-1.670;2023-03-09T15:16:00;332.88;;;162.35;;
75236;SDS011;63826;48.100;-1.670;2023-03-09T15:18:27;28.83;;;9.63;;
75236;SDS011;63826;48.100;-1.670;2023-03-09T15:20:53;16.17;;;1.50;;
75236;SDS011;63826;48.100;-1.670;2023-03-09T15:23:19;14.38;;;1.45;;
75236;SDS011;63826;48.100;-1.670;2023-03-09T15:25:45;8.52;;;1.10;;
75236;SDS011;63826;48.100;-1.670;2023-03-09T15:28:13;9.75;;;1.00;;
75236;SDS011;63826;48.100;-1.670;2023-03-09T15:30:38;8.50;;;1.50;;
75236;SDS011;63826;48.100;-1.670;2023-03-09T15:33:04;9.57;;;1.17;;
75236;SDS011;63826;48.100;-1.670;2023-03-09T15:35:30;5.93;;;0.90;;
75236;SDS011;63826;48.100;-1.670;2023-03-09T15:37:57;8.52;;;0.90;;
75236;SDS011;63826;48.100;-1.670;2023-03-09T15:40:23;8.90;;;1.20;;
75236;SDS011;63826;48.100;-1.670;2023-03-09T15:42:50;5.88;;;0.95;;
75236;SDS011;63826;48.100;-1.670;2023-03-09T15:45:16;11.25;;;1.42;;